Time;durP1;ratioP1;P1;durP2;ratioP2;P2;SDS_P1;SDS_P2;PMS_P1;PMS_P2;Temp;Humidity;BMP_temperature;BMP_pressure;BME280_temperature;BME280_humidity;BME280_pressure;Samples;Min_cycle;Max_cycle;Signal;HPM_P1;HPM_P2
2022/10/02 00:01:36;;;;;;;11.52;7.28;;;;;;;;;;6276976;22;20027;-74
2022/10/02 00:04:04;;;;;;;16.65;7.85;;;;;;;;;;6303016;22;20080;-74
2022/10/02 00:06:41;;;;;;;10.93;7.18;;;;;;;;;;6302538;22;20019;-74
2022/10/02 00:09:13;;;;;;;8.07;6.57;;;;;;;;;;6275046;22;20031;-74
2022/10/02 00:11:49;;;;;;;9.13;7.13;;;;;;;;;;6301990;22;20025;-75
2022/10/02 00:14:17;;;;;;;10.05;7.40;;;;;;;;;;6303896;22;20019;-74
2022/10/02 00:16:56;;;;;;;11.55;7.53;;;;;;;;;;6275959;22;20015;-75
2022/10/02 00:19:24;;;;;;;13.32;7.55;;;;;;;;;;6299122;22;20081;-74
2022/10/02 00:21:58;;;;;;;13.30;8.02;;;;;;;;;;6303305;22;20406;-75
2022/10/02 00:24:41;;;;;;;11.25;7.43;;;;;;;;;;6303502;22;20022;-75
2022/10/02 00:27:53;;;;;;;15.10;9.43;;;;;;;;;;6302967;22;20022;-75
2022/10/02 00:30:27;;;;;;;11.05;7.90;;;;;;;;;;6205601;23;20025;-74
2022/10/02 00:33:24;;;;;;;15.65;8.10;;;;;;;;;;6208312;23;20063;-74
2022/10/02 00:36:17;;;;;;;12.70;7.85;;;;;;;;;;6210368;22;20047;-74
2022/10/02 00:38:58;;;;;;;11.82;7.85;;;;;;;;;;6303499;22;20053;-75
2022/10/02 00:41:31;;;;;;;13.38;8.88;;;;;;;;;;6303011;22;20027;-74
2022/10/02 00:44:05;;;;;;;8.10;7.05;;;;;;;;;;6303442;22;20026;-74
2022/10/02 00:46:32;;;;;;;11.18;7.10;;;;;;;;;;6302387;22;20030;-74
2022/10/02 00:49:23;;;;;;;8.40;6.50;;;;;;;;;;6277659;22;20022;-74
2022/10/02 00:52:05;;;;;;;11.73;7.40;;;;;;;;;;6302748;22;20015;-75
2022/10/02 00:54:48;;;;;;;58.45;14.60;;;;;;;;;;6303595;22;20058;-75
2022/10/02 00:57:21;;;;;;;10.70;6.97;;;;;;;;;;6303314;22;20086;-74
2022/10/02 01:00:08;;;;;;;10.30;7.47;;;;;;;;;;6303567;22;20401;-75
2022/10/02 01:02:44;;;;;;;15.15;9.50;;;;;;;;;;6302309;22;20106;-75
2022/10/02 01:05:21;;;;;;;14.93;9.32;;;;;;;;;;6300977;22;20019;-75
2022/10/02 01:07:50;;;;;;;12.98;7.53;;;;;;;;;;6301162;22;20109;-75
2022/10/02 01:10:18;;;;;;;7.68;6.30;;;;;;;;;;6302021;22;20030;-74
2022/10/02 01:12:53;;;;;;;14.48;8.02;;;;;;;;;;6301206;22;20356;-74
2022/10/02 01:15:22;;;;;;;14.82;8.98;;;;;;;;;;6300288;22;20058;-75
2022/10/02 01:17:56;;;;;;;11.45;8.98;;;;;;;;;;6301895;22;20090;-75
2022/10/02 01:20:37;;;;;;;15.65;9.82;;;;;;;;;;6301307;22;20021;-75
2022/10/02 01:23:14;;;;;;;10.77;8.13;;;;;;;;;;6276572;22;20023;-75
2022/10/02 01:25:42;;;;;;;15.30;8.00;;;;;;;;;;6301773;22;20026;-75
2022/10/02 01:28:10;;;;;;;9.02;7.55;;;;;;;;;;6302214;22;20067;-75
2022/10/02 01:30:59;;;;;;;12.60;8.55;;;;;;;;;;6268018;22;20393;-75
2022/10/02 01:33:34;;;;;;;12.27;7.85;;;;;;;;;;6269903;22;20047;-75
2022/10/02 01:36:01;;;;;;;11.70;8.55;;;;;;;;;;6269776;22;20456;-75
2022/10/02 01:38:29;;;;;;;10.23;7.13;;;;;;;;;;6269850;22;20020;-75
2022/10/02 01:41:02;;;;;;;9.35;6.53;;;;;;;;;;6270825;22;20031;-75
2022/10/02 01:43:38;;;;;;;12.18;8.98;;;;;;;;;;6271402;22;20107;-75
2022/10/02 01:46:11;;;;;;;11.32;8.32;;;;;;;;;;6270143;22;20409;-75
2022/10/02 01:48:44;;;;;;;12.82;8.82;;;;;;;;;;6268234;22;20078;-74
2022/10/02 01:51:19;;;;;;;17.90;9.55;;;;;;;;;;6270292;22;20098;-75
2022/10/02 01:53:58;;;;;;;11.68;9.07;;;;;;;;;;6268732;22;20095;-74
2022/10/02 01:56:35;;;;;;;23.98;12.00;;;;;;;;;;6270753;22;20020;-75
2022/10/02 01:59:07;;;;;;;34.28;12.80;;;;;;;;;;6270414;22;20020;-75
2022/10/02 02:01:54;;;;;;;12.73;8.85;;;;;;;;;;6270929;22;20024;-75
2022/10/02 02:04:23;;;;;;;17.90;9.40;;;;;;;;;;6271253;22;20019;-74
2022/10/02 02:07:01;;;;;;;22.50;10.38;;;;;;;;;;6268748;22;20547;-75
2022/10/02 02:09:29;;;;;;;15.93;10.05;;;;;;;;;;6270544;22;20111;-74
2022/10/02 02:12:02;;;;;;;14.98;9.98;;;;;;;;;;6270066;22;20699;-75
2022/10/02 02:14:39;;;;;;;16.65;10.02;;;;;;;;;;6269366;22;20034;-74
2022/10/02 02:17:13;;;;;;;15.05;9.45;;;;;;;;;;6268415;22;20058;-74
2022/10/02 02:19:54;;;;;;;24.60;8.35;;;;;;;;;;6270946;22;20020;-75
2022/10/02 02:22:21;;;;;;;22.90;9.77;;;;;;;;;;6269353;22;20553;-75
2022/10/02 02:25:08;;;;;;;15.35;8.52;;;;;;;;;;6269552;22;20019;-75
2022/10/02 02:27:43;;;;;;;20.85;10.27;;;;;;;;;;6269394;22;20024;-74
2022/10/02 02:30:33;;;;;;;14.85;9.90;;;;;;;;;;6278003;22;20050;-74
2022/10/02 02:33:10;;;;;;;12.77;8.45;;;;;;;;;;6275318;22;20053;-75
2022/10/02 02:35:49;;;;;;;11.27;7.00;;;;;;;;;;6300914;22;20019;-75
2022/10/02 02:38:24;;;;;;;17.08;9.23;;;;;;;;;;6300974;22;20029;-75
2022/10/02 02:41:02;;;;;;;17.70;9.57;;;;;;;;;;6301349;22;20359;-75
2022/10/02 02:43:32;;;;;;;12.70;8.90;;;;;;;;;;6300504;22;20023;-75
2022/10/02 02:46:07;;;;;;;15.73;10.15;;;;;;;;;;6300739;22;20019;-75
2022/10/02 02:48:46;;;;;;;13.95;9.43;;;;;;;;;;6301004;22;20027;-74
2022/10/02 02:51:26;;;;;;;21.40;12.18;;;;;;;;;;6300388;22;20579;-75
2022/10/02 02:54:02;;;;;;;12.77;9.38;;;;;;;;;;6271297;22;20531;-75
2022/10/02 02:56:37;;;;;;;25.40;12.43;;;;;;;;;;6302299;22;20495;-75
2022/10/02 02:59:09;;;;;;;16.98;11.93;;;;;;;;;;6301460;22;20107;-75
2022/10/02 03:01:43;;;;;;;15.60;8.57;;;;;;;;;;6275767;22;20348;-75
2022/10/02 03:04:11;;;;;;;19.77;11.10;;;;;;;;;;6301926;22;20517;-75
2022/10/02 03:06:48;;;;;;;41.35;13.95;;;;;;;;;;6301333;22;20098;-74
2022/10/02 03:09:20;;;;;;;39.67;16.17;;;;;;;;;;6300717;22;20026;-75
2022/10/02 03:12:08;;;;;;;47.72;13.32;;;;;;;;;;6301446;22;20129;-74
2022/10/02 03:14:42;;;;;;;;;;;;;;;;;;6301781;22;20396;-75
2022/10/02 03:17:28;;;;;;;13.93;8.45;;;;;;;;;;6272968;22;19919;-75
2022/10/02 03:20:10;;;;;;;17.15;11.68;;;;;;;;;;6300096;22;20029;-74
2022/10/02 03:22:50;;;;;;;22.92;10.95;;;;;;;;;;6300738;22;20038;-75
2022/10/02 03:25:30;;;;;;;12.77;8.90;;;;;;;;;;6301167;22;20019;-74
2022/10/02 03:28:08;;;;;;;17.88;9.40;;;;;;;;;;6275068;22;20349;-74
2022/10/02 03:30:49;;;;;;;11.68;9.45;;;;;;;;;;6298898;22;20037;-75
2022/10/02 03:33:24;;;;;;;16.52;10.88;;;;;;;;;;6300368;22;20352;-75
2022/10/02 03:35:54;;;;;;;32.65;13.18;;;;;;;;;;6301565;22;20102;-75
2022/10/02 03:38:23;;;;;;;18.85;9.75;;;;;;;;;;6299053;22;20104;-75
2022/10/02 03:40:59;;;;;;;12.93;7.03;;;;;;;;;;6301500;22;20559;-75
2022/10/02 03:43:27;;;;;;;14.77;9.02;;;;;;;;;;6301054;22;20019;-75
2022/10/02 03:45:54;;;;;;;111.97;17.35;;;;;;;;;;6300070;22;20355;-75
2022/10/02 03:48:28;;;;;;;32.65;13.05;;;;;;;;;;6300365;22;20023;-75
2022/10/02 03:51:02;;;;;;;246.73;22.52;;;;;;;;;;6302503;22;20019;-75
2022/10/02 03:53:36;;;;;;;451.20;33.15;;;;;;;;;;6302554;22;20029;-75
2022/10/02 03:56:19;;;;;;;480.55;32.42;;;;;;;;;;6304131;22;20407;-75
2022/10/02 03:58:49;;;;;;;24.98;12.02;;;;;;;;;;6304142;22;20019;-74
2022/10/02 04:01:33;;;;;;;16.17;9.85;;;;;;;;;;6304256;22;20023;-75
2022/10/02 04:04:03;;;;;;;18.00;8.60;;;;;;;;;;6303635;22;20482;-74
2022/10/02 04:06:41;;;;;;;18.73;10.32;;;;;;;;;;6277331;22;20415;-74
2022/10/02 04:09:14;;;;;;;26.80;13.48;;;;;;;;;;6302630;22;20066;-74
2022/10/02 04:11:58;;;;;;;72.32;18.27;;;;;;;;;;6303810;22;20029;-75
2022/10/02 04:14:30;;;;;;;24.85;11.95;;;;;;;;;;6302361;22;20106;-74
2022/10/02 04:17:06;;;;;;;15.45;9.57;;;;;;;;;;6303359;22;20109;-75
2022/10/02 04:19:45;;;;;;;24.67;8.88;;;;;;;;;;6302728;22;20046;-75
2022/10/02 04:22:39;;;;;;;26.52;11.55;;;;;;;;;;6302602;22;20030;-75
2022/10/02 04:25:22;;;;;;;27.85;12.43;;;;;;;;;;6275903;22;20019;-75
2022/10/02 04:27:59;;;;;;;20.23;9.65;;;;;;;;;;6302606;22;20101;-75
2022/10/02 04:30:45;;;;;;;18.25;9.50;;;;;;;;;;6301289;22;20093;-75
2022/10/02 04:33:20;;;;;;;13.43;8.85;;;;;;;;;;6303010;22;20030;-79
2022/10/02 04:35:50;;;;;;;18.95;10.55;;;;;;;;;;6303019;22;20058;-75
2022/10/02 04:38:36;;;;;;;22.02;11.55;;;;;;;;;;6277366;22;20381;-75
2022/10/02 04:41:04;;;;;;;20.55;10.95;;;;;;;;;;6303052;22;20027;-75
2022/10/02 04:43:46;;;;;;;19.65;10.43;;;;;;;;;;6276039;22;20025;-75
2022/10/02 04:46:32;;;;;;;23.40;10.38;;;;;;;;;;6302543;22;20069;-75
2022/10/02 04:49:14;;;;;;;12.30;7.90;;;;;;;;;;6277472;22;20098;-76
2022/10/02 04:52:00;;;;;;;10.73;7.45;;;;;;;;;;6303655;22;20019;-75
2022/10/02 04:54:34;;;;;;;13.98;8.32;;;;;;;;;;6302598;22;20117;-75
2022/10/02 04:57:16;;;;;;;8.80;5.80;;;;;;;;;;6276251;22;20023;-75
2022/10/02 04:59:49;;;;;;;11.00;6.15;;;;;;;;;;6301758;22;20065;-76
2022/10/02 05:02:27;;;;;;;11.40;6.50;;;;;;;;;;6302029;22;20344;-75
2022/10/02 05:05:13;;;;;;;16.73;9.20;;;;;;;;;;6303878;22;20042;-75
2022/10/02 05:07:54;;;;;;;15.57;6.80;;;;;;;;;;6303066;22;20419;-75
2022/10/02 05:10:40;;;;;;;10.65;6.32;;;;;;;;;;6275518;22;20532;-75
2022/10/02 05:13:26;;;;;;;16.60;8.40;;;;;;;;;;6303820;22;20094;-75
2022/10/02 05:15:56;;;;;;;26.77;11.30;;;;;;;;;;6275590;22;20106;-75
2022/10/02 05:18:30;;;;;;;10.45;7.10;;;;;;;;;;6302257;22;20050;-75
2022/10/02 05:21:01;;;;;;;17.20;7.55;;;;;;;;;;6302847;22;20094;-74
2022/10/02 05:23:34;;;;;;;16.38;7.43;;;;;;;;;;6276333;22;20076;-75
2022/10/02 05:26:28;;;;;;;22.23;8.15;;;;;;;;;;6303730;22;20098;-75
2022/10/02 05:29:02;;;;;;;19.27;8.15;;;;;;;;;;6302402;22;20458;-75
2022/10/02 05:32:05;;;;;;;15.65;7.88;;;;;;;;;;6301339;22;20019;-75
2022/10/02 05:34:54;;;;;;;18.42;8.55;;;;;;;;;;6302851;22;20121;-75
2022/10/02 05:37:28;;;;;;;15.82;7.82;;;;;;;;;;6302073;22;20059;-75
2022/10/02 05:40:23;;;;;;;18.40;8.60;;;;;;;;;;6277396;22;20015;-75
2022/10/02 05:43:09;;;;;;;20.00;9.20;;;;;;;;;;6303002;22;20063;-75
2022/10/02 05:45:46;;;;;;;26.73;9.77;;;;;;;;;;6277396;22;20031;-75
2022/10/02 05:48:32;;;;;;;31.40;11.05;;;;;;;;;;6303096;22;20110;-75
2022/10/02 05:51:07;;;;;;;33.45;11.75;;;;;;;;;;6302114;22;20023;-75
2022/10/02 05:53:36;;;;;;;22.30;7.88;;;;;;;;;;6301672;22;20122;-75
2022/10/02 05:56:14;;;;;;;33.08;8.25;;;;;;;;;;6303673;22;20098;-75
2022/10/02 05:59:00;;;;;;;19.30;7.75;;;;;;;;;;6301769;22;20027;-75
2022/10/02 06:01:27;;;;;;;;;;;;;;;;;;6302643;22;20023;-75
2022/10/02 06:04:03;;;;;;;17.00;6.30;;;;;;;;;;6302809;22;20244;-75
2022/10/02 06:06:33;;;;;;;22.70;5.85;;;;;;;;;;6274614;22;20110;-75
2022/10/02 06:09:18;;;;;;;25.92;10.45;;;;;;;;;;6301455;22;20384;-75
2022/10/02 06:11:58;;;;;;;24.90;10.43;;;;;;;;;;6303165;22;20460;-75
2022/10/02 06:14:58;;;;;;;21.00;9.02;;;;;;;;;;6300975;22;20102;-75
2022/10/02 06:17:30;;;;;;;16.02;6.90;;;;;;;;;;6301074;22;20872;-74
2022/10/02 06:20:14;;;;;;;17.73;7.03;;;;;;;;;;6302134;22;20102;-75
2022/10/02 06:22:59;;;;;;;15.00;8.50;;;;;;;;;;6301445;22;20106;-75
2022/10/02 06:25:42;;;;;;;14.98;7.80;;;;;;;;;;6299642;22;20015;-75
2022/10/02 06:28:24;;;;;;;15.18;8.13;;;;;;;;;;6276240;22;20102;-75
2022/10/02 06:30:58;;;;;;;16.65;8.52;;;;;;;;;;6300519;22;20019;-75
2022/10/02 06:33:32;;;;;;;27.85;10.25;;;;;;;;;;6274752;22;20015;-75
2022/10/02 06:36:13;;;;;;;18.20;8.20;;;;;;;;;;6302180;22;20023;-75
2022/10/02 06:38:50;;;;;;;51.60;10.95;;;;;;;;;;6298738;22;20023;-75
2022/10/02 06:41:30;;;;;;;29.83;8.98;;;;;;;;;;6300039;22;20023;-75
2022/10/02 06:44:07;;;;;;;28.02;9.18;;;;;;;;;;6301773;22;20054;-75
2022/10/02 06:46:53;;;;;;;17.33;8.15;;;;;;;;;;6302169;22;20045;-76
2022/10/02 06:49:38;;;;;;;16.90;8.10;;;;;;;;;;6302286;22;20110;-75
2022/10/02 06:52:24;;;;;;;9.40;5.97;;;;;;;;;;6302133;22;20619;-76
2022/10/02 06:55:37;;;;;;;16.15;7.65;;;;;;;;;;6301845;22;20356;-76
2022/10/02 06:58:13;;;;;;;9.85;5.32;;;;;;;;;;6251406;22;20026;-75
2022/10/02 07:00:58;;;;;;;14.68;7.10;;;;;;;;;;6301385;22;20129;-76
2022/10/02 07:03:26;;;;;;;;;;;;;;;;;;6275792;22;20023;-76
2022/10/02 07:06:11;;;;;;;19.95;6.40;;;;;;;;;;6302354;22;19919;-77
2022/10/02 07:08:53;;;;;;;17.40;5.68;;;;;;;;;;6302942;22;20027;-76
2022/10/02 07:11:31;;;;;;;17.52;6.53;;;;;;;;;;6303396;22;20384;-76
2022/10/02 07:14:17;;;;;;;19.98;7.00;;;;;;;;;;6301329;22;20354;-75
2022/10/02 07:16:53;;;;;;;18.05;6.28;;;;;;;;;;6302819;22;20645;-75
2022/10/02 07:19:27;;;;;;;17.52;5.10;;;;;;;;;;6274646;22;20516;-75
2022/10/02 07:22:03;;;;;;;15.07;4.97;;;;;;;;;;6300733;22;20098;-75
2022/10/02 07:24:59;;;;;;;24.63;7.53;;;;;;;;;;6303912;22;20341;-76
2022/10/02 07:27:52;;;;;;;23.25;6.50;;;;;;;;;;6303486;22;20268;-76
2022/10/02 07:30:19;;;;;;;19.92;6.57;;;;;;;;;;6300859;22;20023;-76
2022/10/02 07:33:12;;;;;;;46.42;10.32;;;;;;;;;;6296536;22;20102;-76
2022/10/02 07:35:55;;;;;;;39.38;8.82;;;;;;;;;;6301638;22;20105;-76
2022/10/02 07:38:43;;;;;;;33.75;9.25;;;;;;;;;;6304328;22;20098;-76
2022/10/02 07:41:16;;;;;;;46.67;9.57;;;;;;;;;;6303644;22;20015;-76
2022/10/02 07:43:43;;;;;;;22.95;7.43;;;;;;;;;;6302994;22;20097;-76
2022/10/02 07:46:16;;;;;;;177.75;19.25;;;;;;;;;;6305102;22;20015;-76
2022/10/02 07:49:09;;;;;;;31.73;8.80;;;;;;;;;;6298966;22;20023;-76
2022/10/02 07:51:56;;;;;;;20.75;8.20;;;;;;;;;;6300458;22;20098;-76
2022/10/02 07:54:32;;;;;;;37.97;10.82;;;;;;;;;;6301522;22;20019;-76
2022/10/02 07:57:15;;;;;;;67.22;10.95;;;;;;;;;;6299802;22;20456;-76
2022/10/02 07:59:51;;;;;;;11.00;6.28;;;;;;;;;;6300872;22;20168;-76
2022/10/02 08:02:24;;;;;;;17.67;5.65;;;;;;;;;;6300848;22;20034;-76
2022/10/02 08:05:01;;;;;;;15.32;6.65;;;;;;;;;;6274432;22;20043;-76
2022/10/02 08:07:30;;;;;;;14.10;6.25;;;;;;;;;;6299660;22;20398;-76
2022/10/02 08:10:05;;;;;;;8.32;5.30;;;;;;;;;;6300553;22;20020;-76
2022/10/02 08:12:37;;;;;;;7.70;5.13;;;;;;;;;;6272566;22;20107;-76
2022/10/02 08:15:14;;;;;;;9.93;5.90;;;;;;;;;;6275524;22;20118;-76
2022/10/02 08:17:49;;;;;;;11.63;6.78;;;;;;;;;;6300433;22;20066;-76
2022/10/02 08:20:43;;;;;;;10.27;7.45;;;;;;;;;;6299731;22;20507;-76
2022/10/02 08:23:22;;;;;;;19.45;9.27;;;;;;;;;;6300022;22;20336;-76
2022/10/02 08:26:01;;;;;;;11.75;8.75;;;;;;;;;;6297278;22;20019;-76
2022/10/02 08:28:41;;;;;;;21.50;11.73;;;;;;;;;;6298765;22;20053;-76
2022/10/02 08:31:22;;;;;;;27.15;14.40;;;;;;;;;;6298598;22;20604;-76
2022/10/02 08:33:56;;;;;;;45.20;16.90;;;;;;;;;;6299314;22;20027;-76
2022/10/02 08:36:33;;;;;;;33.63;14.70;;;;;;;;;;6273063;22;20023;-76
2022/10/02 08:39:04;;;;;;;51.35;18.67;;;;;;;;;;6297870;22;20047;-76
2022/10/02 08:41:50;;;;;;;29.98;13.68;;;;;;;;;;6298086;22;20019;-76
2022/10/02 08:44:27;;;;;;;26.70;14.10;;;;;;;;;;6271416;22;20027;-76
2022/10/02 08:47:21;;;;;;;32.38;14.65;;;;;;;;;;6300583;22;20027;-76
2022/10/02 08:50:02;;;;;;;26.60;13.52;;;;;;;;;;6300399;22;20094;-76
2022/10/02 08:52:55;;;;;;;19.48;10.63;;;;;;;;;;6300914;22;20424;-76
2022/10/02 08:55:25;;;;;;;25.00;12.45;;;;;;;;;;6273073;22;20114;-77
2022/10/02 08:58:09;;;;;;;27.65;12.73;;;;;;;;;;6298920;22;20023;-76
2022/10/02 09:00:48;;;;;;;22.02;11.70;;;;;;;;;;6299234;22;20026;-76
2022/10/02 09:03:23;;;;;;;23.27;10.52;;;;;;;;;;6297942;22;20116;-76
2022/10/02 09:06:09;;;;;;;11.88;7.93;;;;;;;;;;6274191;22;20019;-76
2022/10/02 09:09:06;;;;;;;17.10;9.57;;;;;;;;;;6303043;22;20023;-75
2022/10/02 09:11:59;;;;;;;12.73;8.65;;;;;;;;;;6302841;22;20019;-77
2022/10/02 09:14:42;;;;;;;19.50;10.30;;;;;;;;;;6275984;22;20090;-76
2022/10/02 09:17:21;;;;;;;16.67;7.55;;;;;;;;;;6302238;22;20023;-76
2022/10/02 09:20:14;;;;;;;12.38;7.38;;;;;;;;;;6276960;22;20019;-76
2022/10/02 09:22:57;;;;;;;6.85;6.13;;;;;;;;;;6275061;22;20522;-76
2022/10/02 09:25:36;;;;;;;9.20;6.82;;;;;;;;;;6301206;22;20094;-76
2022/10/02 09:28:16;;;;;;;10.18;7.00;;;;;;;;;;6302401;22;20036;-76
2022/10/02 09:31:17;;;;;;;10.95;6.70;;;;;;;;;;6300497;22;20032;-76
2022/10/02 09:34:05;;;;;;;9.02;6.30;;;;;;;;;;6300852;22;20222;-76
2022/10/02 09:36:44;;;;;;;6.80;5.88;;;;;;;;;;6276637;22;20019;-76
2022/10/02 09:39:14;;;;;;;8.07;5.95;;;;;;;;;;6301408;22;20019;-76
2022/10/02 09:42:07;;;;;;;6.95;5.15;;;;;;;;;;6301497;22;20030;-76
2022/10/02 09:44:34;;;;;;;5.93;4.35;;;;;;;;;;6301499;22;20360;-76
2022/10/02 09:47:27;;;;;;;6.38;4.43;;;;;;;;;;6276076;22;20539;-76
2022/10/02 09:49:56;;;;;;;5.97;4.75;;;;;;;;;;6301026;22;20098;-76
2022/10/02 09:52:55;;;;;;;4.70;3.90;;;;;;;;;;6302086;22;20023;-75
2022/10/02 09:55:22;;;;;;;6.45;5.18;;;;;;;;;;6300211;22;20310;-76
2022/10/02 09:58:28;;;;;;;6.60;4.95;;;;;;;;;;6275941;22;20023;-76
2022/10/02 10:00:58;;;;;;;8.23;5.30;;;;;;;;;;6301408;22;20110;-77
2022/10/02 10:03:35;;;;;;;8.20;4.80;;;;;;;;;;6300238;22;20092;-76
2022/10/02 10:06:05;;;;;;;5.85;4.45;;;;;;;;;;6274846;22;20157;-76
2022/10/02 10:09:05;;;;;;;7.07;5.40;;;;;;;;;;6276497;22;20023;-76
2022/10/02 10:11:50;;;;;;;8.52;5.32;;;;;;;;;;6301509;22;20587;-76
2022/10/02 10:14:44;;;;;;;8.65;5.78;;;;;;;;;;6301150;22;20019;-76
2022/10/02 10:17:24;;;;;;;6.70;5.07;;;;;;;;;;6299859;22;20102;-76
2022/10/02 10:20:03;;;;;;;8.73;6.72;;;;;;;;;;6302084;22;20021;-76
2022/10/02 10:22:47;;;;;;;9.35;5.60;;;;;;;;;;6301528;22;20097;-76
2022/10/02 10:25:41;;;;;;;11.68;6.05;;;;;;;;;;6301041;22;20412;-76
2022/10/02 10:28:24;;;;;;;8.52;6.35;;;;;;;;;;6274876;22;20602;-76
2022/10/02 10:31:13;;;;;;;8.40;5.65;;;;;;;;;;6300737;22;20036;-76
2022/10/02 10:33:57;;;;;;;9.38;5.90;;;;;;;;;;6301601;22;20097;-76
2022/10/02 10:39:47;;;;;;;6.85;4.60;;;;;;;;;;6302415;22;20486;-76
2022/10/02 10:42:24;;;;;;;16.40;7.30;;;;;;;;;;6301772;22;20107;-76
2022/10/02 10:45:10;;;;;;;22.98;8.80;;;;;;;;;;6301411;22;20255;-76
2022/10/02 10:47:56;;;;;;;7.25;5.50;;;;;;;;;;6302586;22;20396;-76
2022/10/02 10:50:34;;;;;;;6.88;6.13;;;;;;;;;;6274409;22;20030;-76
2022/10/02 10:53:17;;;;;;;9.23;4.28;;;;;;;;;;6302513;22;20020;-76
2022/10/02 10:56:06;;;;;;;8.55;4.68;;;;;;;;;;6301155;22;20049;-76
2022/10/02 10:58:39;;;;;;;6.63;5.25;;;;;;;;;;6302099;22;20019;-76
2022/10/02 11:01:17;;;;;;;6.50;4.60;;;;;;;;;;6303332;22;20041;-76
2022/10/02 11:03:57;;;;;;;10.35;4.72;;;;;;;;;;6304213;22;20356;-77
2022/10/02 11:06:33;;;;;;;8.45;4.82;;;;;;;;;;6303320;22;20021;-76
2022/10/02 11:09:30;;;;;;;7.03;4.80;;;;;;;;;;6303448;22;20027;-77
2022/10/02 11:11:58;;;;;;;10.88;6.18;;;;;;;;;;6303321;22;20110;-77
2022/10/02 11:14:59;;;;;;;9.20;5.88;;;;;;;;;;6302491;22;20031;-77
2022/10/02 11:17:32;;;;;;;11.32;6.38;;;;;;;;;;6260558;22;20057;-77
2022/10/02 11:20:05;;;;;;;8.80;5.85;;;;;;;;;;6304535;22;20027;-77
2022/10/02 11:22:36;;;;;;;8.82;6.00;;;;;;;;;;6303554;22;20083;-76
2022/10/02 11:25:22;;;;;;;9.60;5.75;;;;;;;;;;6275939;22;20059;-77
2022/10/02 11:28:13;;;;;;;8.07;5.32;;;;;;;;;;6277673;22;20201;-76
2022/10/02 11:30:59;;;;;;;10.60;6.03;;;;;;;;;;6276439;22;20053;-77
2022/10/02 11:33:59;;;;;;;5.25;4.50;;;;;;;;;;6240971;22;20685;-76
2022/10/02 11:36:45;;;;;;;8.23;4.40;;;;;;;;;;6240733;22;20031;-76
2022/10/02 11:39:23;;;;;;;8.32;4.65;;;;;;;;;;6240772;22;20024;-76
2022/10/02 11:42:08;;;;;;;6.75;4.75;;;;;;;;;;6238759;23;20052;-76
2022/10/02 11:44:54;;;;;;;3.72;3.30;;;;;;;;;;6242298;22;20030;-76
2022/10/02 11:47:40;;;;;;;8.55;4.30;;;;;;;;;;6240684;23;20020;-76
2022/10/02 11:50:14;;;;;;;3.67;3.25;;;;;;;;;;6238931;23;20020;-76
2022/10/02 11:52:51;;;;;;;6.10;4.47;;;;;;;;;;6241276;23;20016;-76
2022/10/02 11:55:37;;;;;;;9.32;4.28;;;;;;;;;;6240727;22;20028;-76
2022/10/02 11:58:04;;;;;;;4.93;4.43;;;;;;;;;;6240475;23;20095;-75
2022/10/02 12:00:52;;;;;;;8.10;4.28;;;;;;;;;;6242548;23;20024;-75
2022/10/02 12:03:34;;;;;;;5.15;4.15;;;;;;;;;;6242020;23;20123;-76
2022/10/02 12:06:32;;;;;;;5.05;4.05;;;;;;;;;;6242144;23;20051;-75
2022/10/02 12:09:25;;;;;;;8.15;3.63;;;;;;;;;;6241413;22;20106;-76
2022/10/02 12:12:05;;;;;;;7.65;3.20;;;;;;;;;;6240990;22;20020;-76
2022/10/02 12:14:36;;;;;;;9.10;3.10;;;;;;;;;;6241794;23;20135;-76
2022/10/02 12:17:28;;;;;;;6.00;3.70;;;;;;;;;;6241809;23;20339;-76
2022/10/02 12:29:12;;;;;;;3.70;3.40;;;;;;;;;;6240577;22;20020;-76
2022/10/02 12:31:50;;;;;;;6.30;4.10;;;;;;;;;;6247032;22;20030;-76
2022/10/02 12:35:00;;;;;;;8.15;3.75;;;;;;;;;;6270544;22;20019;-76
2022/10/02 12:37:33;;;;;;;5.72;4.25;;;;;;;;;;6207047;23;20079;-76
2022/10/02 12:40:15;;;;;;;7.00;4.53;;;;;;;;;;6266071;22;20051;-76
2022/10/02 12:42:48;;;;;;;8.85;4.43;;;;;;;;;;6270285;22;20111;-76
2022/10/02 12:45:46;;;;;;;7.60;3.90;;;;;;;;;;6270826;22;20028;-76
2022/10/02 12:48:32;;;;;;;5.55;3.60;;;;;;;;;;6264623;22;20026;-76
2022/10/02 12:51:15;;;;;;;6.97;3.20;;;;;;;;;;6271455;22;20471;-76
2022/10/02 12:53:59;;;;;;;4.72;3.10;;;;;;;;;;6271002;22;20410;-76
2022/10/02 12:56:51;;;;;;;5.60;3.22;;;;;;;;;;6271717;22;20022;-76
2022/10/02 12:59:28;;;;;;;3.95;3.35;;;;;;;;;;6271471;22;20070;-76
2022/10/02 13:02:11;;;;;;;4.13;3.20;;;;;;;;;;6271462;22;20102;-76
2022/10/02 13:04:56;;;;;;;7.60;3.25;;;;;;;;;;6270110;22;20019;-76
2022/10/02 13:07:25;;;;;;;4.45;3.88;;;;;;;;;;6270875;22;20026;-76
2022/10/02 13:09:58;;;;;;;4.18;3.50;;;;;;;;;;6269560;22;20053;-76
2022/10/02 13:12:49;;;;;;;3.80;3.10;;;;;;;;;;6270884;22;20491;-76
2022/10/02 13:15:34;;;;;;;6.57;3.42;;;;;;;;;;6268861;22;20532;-76
2022/10/02 13:18:01;;;;;;;;;;;;;;;;;;6269727;22;20095;-76
2022/10/02 13:20:57;;;;;;;6.43;2.88;;;;;;;;;;6271851;22;19990;-76
2022/10/02 13:23:43;;;;;;;4.53;3.58;;;;;;;;;;6242921;22;20449;-76
2022/10/02 13:26:14;;;;;;;4.87;2.77;;;;;;;;;;6272334;22;20456;-76
2022/10/02 13:28:51;;;;;;;5.40;2.50;;;;;;;;;;6269550;22;20024;-76
2022/10/02 13:31:35;;;;;;;6.90;2.75;;;;;;;;;;6273680;22;20028;-76
2022/10/02 13:34:18;;;;;;;5.97;3.00;;;;;;;;;;6276249;22;20027;-76
2022/10/02 13:36:49;;;;;;;5.35;3.15;;;;;;;;;;6301801;22;20023;-76
2022/10/02 13:39:25;;;;;;;9.95;3.83;;;;;;;;;;6302210;22;20357;-77
2022/10/02 13:42:05;;;;;;;3.47;2.85;;;;;;;;;;6302846;22;20030;-77
2022/10/02 13:44:57;;;;;;;6.35;3.50;;;;;;;;;;6301070;22;20411;-76
2022/10/02 13:47:42;;;;;;;5.63;2.97;;;;;;;;;;6301314;22;20511;-76
2022/10/02 13:50:36;;;;;;;5.95;3.58;;;;;;;;;;6301717;22;20124;-76
2022/10/02 13:53:22;;;;;;;5.32;3.63;;;;;;;;;;6274703;22;20468;-76
2022/10/02 13:56:16;;;;;;;4.70;4.00;;;;;;;;;;6301479;22;20107;-76
2022/10/02 13:58:55;;;;;;;10.48;4.15;;;;;;;;;;6301749;22;20019;-77
2022/10/02 14:01:41;;;;;;;7.82;3.60;;;;;;;;;;6302793;22;20102;-76
2022/10/02 14:04:26;;;;;;;7.13;3.78;;;;;;;;;;6300517;22;20023;-77
2022/10/02 14:07:14;;;;;;;5.85;4.22;;;;;;;;;;6275991;22;20086;-77
2022/10/02 14:09:47;;;;;;;4.82;4.18;;;;;;;;;;6302106;22;20457;-77
2022/10/02 14:12:24;;;;;;;8.13;4.15;;;;;;;;;;6276422;22;20023;-77
2022/10/02 14:15:01;;;;;;;9.35;4.78;;;;;;;;;;6300783;22;20122;-77
2022/10/02 14:17:47;;;;;;;6.05;4.13;;;;;;;;;;6274674;22;20102;-77
2022/10/02 14:20:14;;;;;;;6.28;3.60;;;;;;;;;;6299814;22;20047;-77
2022/10/02 14:23:22;;;;;;;4.00;3.63;;;;;;;;;;6300587;22;20023;-77
2022/10/02 14:25:49;;;;;;;6.88;3.30;;;;;;;;;;6272000;22;20023;-77
2022/10/02 14:28:33;;;;;;;7.78;4.10;;;;;;;;;;6301169;22;20094;-77
2022/10/02 14:31:46;;;;;;;6.07;3.35;;;;;;;;;;6301000;22;20023;-77
2022/10/02 14:34:26;;;;;;;4.35;3.08;;;;;;;;;;6270777;22;20019;-76
2022/10/02 14:37:15;;;;;;;7.35;2.75;;;;;;;;;;6273214;22;20102;-77
2022/10/02 14:39:49;;;;;;;6.68;3.10;;;;;;;;;;6299885;22;20135;-76
2022/10/02 14:42:28;;;;;;;6.60;3.17;;;;;;;;;;6301398;22;20022;-76
2022/10/02 14:44:59;;;;;;;5.30;3.10;;;;;;;;;;6300146;22;20469;-76
2022/10/02 14:47:40;;;;;;;6.57;3.63;;;;;;;;;;6301439;22;20058;-77
2022/10/02 14:50:24;;;;;;;4.55;3.35;;;;;;;;;;6297206;22;20132;-76
2022/10/02 14:53:16;;;;;;;4.00;3.47;;;;;;;;;;6298227;22;20023;-76
2022/10/02 14:55:49;;;;;;;8.45;3.33;;;;;;;;;;6299902;22;20019;-76
2022/10/02 14:58:35;;;;;;;10.15;3.58;;;;;;;;;;6301373;22;20074;-77
2022/10/02 15:01:09;;;;;;;8.23;4.07;;;;;;;;;;6302112;22;20071;-76
2022/10/02 15:03:42;;;;;;;7.03;3.60;;;;;;;;;;6300809;22;20027;-77
2022/10/02 15:06:12;;;;;;;6.15;4.25;;;;;;;;;;6300812;22;20023;-75
2022/10/02 15:08:52;;;;;;;5.95;4.07;;;;;;;;;;6300979;22;20553;-77
2022/10/02 15:11:40;;;;;;;5.75;4.13;;;;;;;;;;6301225;22;20016;-76
2022/10/02 15:14:18;;;;;;;4.20;3.60;;;;;;;;;;6254057;22;20020;-76
2022/10/02 15:20:02;;;;;;;8.25;4.28;;;;;;;;;;6302897;22;20094;-76
2022/10/02 15:22:35;;;;;;;11.85;4.50;;;;;;;;;;6300313;22;20110;-76
2022/10/02 15:25:28;;;;;;;6.28;4.55;;;;;;;;;;6300911;22;20102;-76
2022/10/02 15:28:05;;;;;;;10.27;4.85;;;;;;;;;;6274592;22;20042;-76
2022/10/02 15:31:05;;;;;;;5.85;5.00;;;;;;;;;;6279716;22;20023;-78
2022/10/02 15:33:46;;;;;;;7.40;5.50;;;;;;;;;;6299175;22;20019;-76
2022/10/02 15:36:46;;;;;;;9.02;5.40;;;;;;;;;;6300827;22;20032;-78
2022/10/02 15:39:13;;;;;;;12.48;5.60;;;;;;;;;;6301299;22;20015;-76
2022/10/02 15:42:06;;;;;;;8.38;5.47;;;;;;;;;;6299171;22;20090;-77
2022/10/02 15:44:42;;;;;;;10.35;6.00;;;;;;;;;;6300894;22;20453;-77
2022/10/02 15:47:29;;;;;;;8.27;6.53;;;;;;;;;;6301698;22;20026;-77
2022/10/02 15:50:03;;;;;;;9.38;6.43;;;;;;;;;;6302913;22;20467;-77
2022/10/02 15:52:47;;;;;;;13.90;6.55;;;;;;;;;;6301239;22;20029;-77
2022/10/02 15:55:24;;;;;;;8.10;6.10;;;;;;;;;;6303906;22;20046;-77
2022/10/02 15:57:57;;;;;;;9.05;5.72;;;;;;;;;;6302114;22;20042;-77
2022/10/02 16:00:26;;;;;;;9.98;5.85;;;;;;;;;;6303297;22;20027;-77
2022/10/02 16:03:02;;;;;;;12.52;6.38;;;;;;;;;;6275327;22;20487;-77
2022/10/02 16:05:52;;;;;;;8.23;6.65;;;;;;;;;;6276777;22;20464;-76